Time;durP1;ratioP1;P1;durP2;ratioP2;P2;SDS_P1;SDS_P2;PMS_P1;PMS_P2;Temp;Humidity;BMP_temperature;BMP_pressure;BME280_temperature;BME280_humidity;BME280_pressure;Samples;Min_cycle;Max_cycle;Signal;HPM_P1;HPM_P2
2020/12/24 00:04:27;;;;;;;0.85;0.80;;;;;;;10.27;100.00;97413.92;3691732;79;43706;-18
2020/12/24 00:09:32;;;;;;;0.70;0.70;;;;;;;10.31;100.00;97414.38;3692223;78;44218;-19
2020/12/24 00:14:38;;;;;;;0.80;0.80;;;;;;;10.25;100.00;97398.45;3697075;80;44076;-18
2020/12/24 00:19:44;;;;;;;1.50;0.80;;;;;;;10.15;100.00;97397.41;3694673;78;73192;-18
2020/12/24 00:24:50;;;;;;;1.57;0.80;;;;;;;10.14;100.00;97389.00;3691389;80;43512;-19
2020/12/24 00:29:56;;;;;;;0.93;0.70;;;;;;;10.15;100.00;97377.71;3697736;78;44007;-19
2020/12/24 00:35:02;;;;;;;1.47;0.80;;;;;;;10.13;100.00;97369.83;3694503;80;73259;-18
2020/12/24 00:40:08;;;;;;;1.07;0.90;;;;;;;10.13;100.00;97368.48;3677555;78;43432;-18
2020/12/24 00:45:14;;;;;;;2.00;0.90;;;;;;;10.12;100.00;97372.20;3681285;80;44888;-18
2020/12/24 00:50:19;;;;;;;2.10;0.90;;;;;;;10.07;100.00;97381.31;3658141;79;44141;-18
2020/12/24 00:55:26;;;;;;;1.10;1.00;;;;;;;10.08;100.00;97379.48;3647450;80;73589;-19
2020/12/24 01:00:32;;;;;;;1.57;1.20;;;;;;;10.06;100.00;97363.50;3690749;79;43186;-19
2020/12/24 01:05:38;;;;;;;1.40;1.00;;;;;;;10.05;100.00;97357.82;3646264;80;44782;-18
2020/12/24 01:10:44;;;;;;;1.43;1.03;;;;;;;9.99;100.00;97348.63;3664680;79;43352;-18
2020/12/24 01:15:50;;;;;;;2.05;1.25;;;;;;;9.87;100.00;97329.40;3689305;80;44023;-18
2020/12/24 01:20:56;;;;;;;1.10;1.00;;;;;;;9.81;100.00;97335.52;3660105;79;44062;-19
2020/12/24 01:26:02;;;;;;;1.70;1.23;;;;;;;9.78;100.00;97362.78;3689494;80;44059;-19
2020/12/24 01:31:07;;;;;;;1.40;1.20;;;;;;;9.75;100.00;97360.45;3664552;79;44050;-19
2020/12/24 01:36:14;;;;;;;1.50;1.33;;;;;;;9.76;100.00;97358.09;3689300;80;44123;-18
2020/12/24 01:41:19;;;;;;;1.40;1.20;;;;;;;9.67;100.00;97349.25;3661715;79;44115;-19
2020/12/24 01:46:25;;;;;;;3.50;1.20;;;;;;;9.61;100.00;97343.77;3689204;78;43477;-19
2020/12/24 01:51:32;;;;;;;2.03;1.10;;;;;;;9.65;100.00;97342.39;3661934;79;44060;-19
2020/12/24 01:56:40;;;;;;;1.27;1.10;;;;;;;9.76;100.00;97331.19;3653312;80;44061;-19
2020/12/24 02:01:47;;;;;;;1.35;1.00;;;;;;;9.92;100.00;97326.67;3658031;79;73570;-18
2020/12/24 02:06:53;;;;;;;1.27;1.03;;;;;;;10.01;100.00;97307.55;3689603;80;44054;-18
2020/12/24 02:12:00;;;;;;;3.00;1.10;;;;;;;10.02;100.00;97273.42;3663970;79;43259;-18
2020/12/24 02:17:06;;;;;;;1.57;1.07;;;;;;;10.08;100.00;97276.70;3645713;79;43378;-18
2020/12/24 02:22:15;;;;;;;2.65;1.10;;;;;;;10.07;100.00;97272.34;3690946;79;73330;-18
2020/12/24 02:27:20;;;;;;;1.40;0.90;;;;;;;10.05;100.00;97251.53;3645075;80;43494;-18
2020/12/24 02:32:26;;;;;;;2.87;1.00;;;;;;;10.11;100.00;97270.95;3669793;79;44027;-18
2020/12/24 02:37:32;;;;;;;1.50;0.93;;;;;;;10.09;100.00;97279.72;3689212;80;44053;-18
2020/12/24 02:42:38;;;;;;;1.70;0.90;;;;;;;10.05;100.00;97303.16;3658869;79;44078;-18
2020/12/24 02:47:44;;;;;;;2.70;1.20;;;;;;;10.12;100.00;97280.70;3608277;80;43390;-19
2020/12/24 02:52:50;;;;;;;1.72;0.90;;;;;;;10.10;100.00;97307.48;3620100;80;44492;-18
2020/12/24 02:57:56;;;;;;;1.62;1.00;;;;;;;10.08;100.00;97298.23;3621308;80;73560;-18
2020/12/24 03:03:01;;;;;;;1.00;0.77;;;;;;;10.05;100.00;97294.59;3569400;81;44486;-18
2020/12/24 03:08:07;;;;;;;2.90;0.90;;;;;;;10.01;100.00;97284.68;3620135;82;43448;-19
2020/12/24 03:13:14;;;;;;;1.37;0.73;;;;;;;9.98;100.00;97283.73;3621689;80;43999;-18
2020/12/24 03:18:19;;;;;;;1.23;0.90;;;;;;;9.86;100.00;97300.82;3620915;80;44055;-19
2020/12/24 03:23:25;;;;;;;1.20;0.80;;;;;;;9.79;100.00;97310.66;3563471;82;44042;-17
2020/12/24 03:28:31;;;;;;;2.87;0.80;;;;;;;9.66;100.00;97268.77;3686790;79;44200;-17
2020/12/24 03:33:37;;;;;;;0.63;0.63;;;;;;;9.58;100.00;97272.89;3694621;78;43995;-18
2020/12/24 03:38:43;;;;;;;2.27;0.90;;;;;;;9.57;100.00;97297.59;3685086;78;43992;-18
2020/12/24 03:43:49;;;;;;;1.93;0.90;;;;;;;9.52;100.00;97280.66;3695333;78;42971;-18
2020/12/24 03:48:55;;;;;;;0.87;0.83;;;;;;;9.44;100.00;97294.19;3687857;79;43088;-18
2020/12/24 03:54:00;;;;;;;1.70;0.80;;;;;;;9.33;100.00;97286.04;3696909;78;73233;-19
2020/12/24 03:59:06;;;;;;;1.20;0.63;;;;;;;9.27;100.00;97300.70;3630545;80;43361;-18
2020/12/24 04:04:14;;;;;;;2.15;1.02;;;;;;;9.25;100.00;97313.81;3625097;80;73209;-18
2020/12/24 04:09:19;;;;;;;1.40;0.70;;;;;;;9.07;100.00;97320.02;3622559;80;43165;-18
2020/12/24 04:14:25;;;;;;;1.80;0.80;;;;;;;8.84;100.00;97306.55;3623859;81;44149;-18
2020/12/24 04:19:31;;;;;;;1.30;0.60;;;;;;;8.97;100.00;97315.39;3631584;80;43995;-18
2020/12/24 04:24:37;;;;;;;1.53;0.73;;;;;;;8.91;100.00;97308.36;3627437;80;43409;-18
2020/12/24 04:29:43;;;;;;;4.47;0.80;;;;;;;8.74;100.00;97308.15;3579834;81;44051;-17
2020/12/24 04:34:50;;;;;;;1.63;0.80;;;;;;;8.57;100.00;97316.80;3626534;80;44165;-17
2020/12/24 04:39:56;;;;;;;3.17;0.80;;;;;;;8.67;100.00;97309.36;3632079;80;42972;-18
2020/12/24 04:45:02;;;;;;;2.23;0.70;;;;;;;8.59;100.00;97318.29;3621275;80;44035;-17
2020/12/24 04:50:08;;;;;;;1.40;0.70;;;;;;;8.30;100.00;97291.55;3695672;78;43738;-18
2020/12/24 04:55:14;;;;;;;1.90;0.70;;;;;;;8.28;100.00;97303.47;3618225;80;73241;-19
2020/12/24 05:00:21;;;;;;;1.60;0.80;;;;;;;8.19;100.00;97304.00;3632726;80;44091;-18
2020/12/24 05:05:27;;;;;;;2.93;0.80;;;;;;;8.12;100.00;97319.13;3619294;82;44040;-19
2020/12/24 05:10:34;;;;;;;2.97;0.90;;;;;;;7.96;100.00;97323.53;3695953;79;43584;-18
2020/12/24 05:15:39;;;;;;;2.20;0.80;;;;;;;7.91;100.00;97322.38;3693741;79;43326;-17
2020/12/24 05:20:46;;;;;;;2.60;0.80;;;;;;;7.68;100.00;97299.81;3696194;79;44251;-17
2020/12/24 05:25:52;;;;;;;3.27;0.70;;;;;;;7.66;100.00;97321.93;3691454;79;43479;-17
2020/12/24 05:30:58;;;;;;;3.63;1.17;;;;;;;7.44;100.00;97325.30;3698702;78;44049;-18
2020/12/24 05:36:20;;;;;;;2.43;0.70;;;;;;;7.23;100.00;97326.66;3691307;79;44010;-19
2020/12/24 05:41:33;;;;;;;3.27;0.83;;;;;;;7.07;100.00;97330.98;3697295;78;44039;-34
2020/12/24 05:46:46;;;;;;;2.10;0.63;;;;;;;6.93;100.00;97334.31;3675148;78;43462;-17
2020/12/24 05:51:54;;;;;;;3.67;0.70;;;;;;;6.70;100.00;97325.57;3660069;79;44078;-18
2020/12/24 05:57:01;;;;;;;3.17;0.97;;;;;;;6.50;100.00;97321.00;3657087;79;44026;-18
2020/12/24 06:02:09;;;;;;;2.80;0.80;;;;;;;6.54;100.00;97326.37;3692838;78;43682;-18
2020/12/24 06:07:17;;;;;;;3.43;0.93;;;;;;;6.62;100.00;97330.40;3664635;79;43491;-18
2020/12/24 06:12:25;;;;;;;2.90;1.00;;;;;;;6.70;100.00;97323.41;3650750;80;43674;-18
2020/12/24 06:17:32;;;;;;;1.83;0.53;;;;;;;6.63;100.00;97325.91;3692625;79;43718;-18
2020/12/24 06:22:48;;;;;;;2.23;0.73;;;;;;;6.61;100.00;97307.83;3651668;81;43448;-18
2020/12/24 06:27:59;;;;;;;2.83;0.60;;;;;;;6.54;100.00;97308.98;3646250;80;43485;-18
2020/12/24 06:33:05;;;;;;;5.27;1.10;;;;;;;6.37;100.00;97309.44;3654959;79;43917;-18
2020/12/24 06:38:12;;;;;;;1.57;0.60;;;;;;;6.26;100.00;97317.23;3659189;79;44433;-18
2020/12/24 06:43:18;;;;;;;2.40;0.70;;;;;;;6.14;100.00;97299.32;3707405;79;43759;-18
2020/12/24 06:48:25;;;;;;;3.00;0.73;;;;;;;6.13;100.00;97308.34;3622598;80;44570;-18
2020/12/24 06:53:32;;;;;;;2.50;1.00;;;;;;;6.02;100.00;97312.63;3623627;81;44028;-18
2020/12/24 06:58:41;;;;;;;2.23;0.60;;;;;;;5.98;100.00;97324.60;3628973;80;43467;-18
2020/12/24 07:03:48;;;;;;;3.80;0.50;;;;;;;5.85;100.00;97313.84;3626344;80;43690;-18
2020/12/24 07:08:54;;;;;;;2.40;0.70;;;;;;;5.72;100.00;97321.45;3566704;81;43713;-18
2020/12/24 07:14:00;;;;;;;1.13;0.60;;;;;;;5.66;100.00;97329.59;3623871;81;44593;-18
2020/12/24 07:19:06;;;;;;;2.93;0.90;;;;;;;5.65;100.00;97316.41;3633440;80;43341;-18
2020/12/24 07:24:14;;;;;;;5.93;0.90;;;;;;;5.75;100.00;97327.81;3623305;80;43493;-18
2020/12/24 07:29:22;;;;;;;6.03;0.90;;;;;;;5.94;100.00;97325.42;3624697;80;43700;-18
2020/12/24 07:34:29;;;;;;;3.03;0.87;;;;;;;6.09;100.00;97317.67;3624078;80;43309;-18
2020/12/24 07:39:35;;;;;;;5.40;1.80;;;;;;;6.20;100.00;97319.72;3629274;80;44038;-18
2020/12/24 07:44:42;;;;;;;4.07;1.10;;;;;;;6.39;100.00;97324.83;3714205;78;43319;-18
2020/12/24 07:49:51;;;;;;;4.30;1.20;;;;;;;6.45;100.00;97311.30;3694817;79;42756;-18
2020/12/24 07:55:10;;;;;;;3.30;0.90;;;;;;;6.55;100.00;97308.47;3762685;78;42867;-18
2020/12/24 08:00:17;;;;;;;2.30;0.80;;;;;;;6.59;100.00;97293.77;3666421;79;44105;-17
2020/12/24 08:05:23;;;;;;;5.53;1.63;;;;;;;6.61;100.00;97307.83;3757749;78;44017;-18
2020/12/24 08:10:29;;;;;;;4.07;0.93;;;;;;;6.67;100.00;97304.48;3696470;78;44079;-18
2020/12/24 08:15:39;;;;;;;4.87;1.10;;;;;;;6.71;100.00;97301.82;3758847;78;43082;-19
2020/12/24 08:20:51;;;;;;;4.07;1.10;;;;;;;6.73;100.00;97300.31;3766329;77;43692;-18
2020/12/24 08:25:59;;;;;;;5.10;1.40;;;;;;;6.73;100.00;97297.63;3756522;78;43419;-19
2020/12/24 08:31:09;;;;;;;6.73;2.03;;;;;;;6.82;100.00;97302.51;3765432;77;43678;-19
2020/12/24 08:36:18;;;;;;;6.60;1.47;;;;;;;6.87;100.00;97299.67;3759034;78;43251;-19
2020/12/24 08:41:25;;;;;;;3.63;1.10;;;;;;;6.85;100.00;97291.48;3778782;77;43336;-19
2020/12/24 08:46:31;;;;;;;2.83;1.00;;;;;;;6.94;100.00;97283.27;3698215;79;44070;-19
2020/12/24 08:51:38;;;;;;;4.00;0.83;;;;;;;6.89;100.00;97296.81;3651569;81;43952;-18
2020/12/24 08:56:46;;;;;;;4.97;1.00;;;;;;;6.80;100.00;97285.28;3645512;80;44053;-18
2020/12/24 09:01:52;;;;;;;5.97;1.03;;;;;;;6.68;100.00;97290.10;3644293;80;44047;-19
2020/12/24 09:06:58;;;;;;;5.20;1.10;;;;;;;6.63;100.00;97293.27;3697680;78;44092;-18
2020/12/24 09:12:06;;;;;;;2.93;1.27;;;;;;;6.59;100.00;97280.39;3666338;79;44209;-19
2020/12/24 09:17:13;;;;;;;2.73;0.83;;;;;;;6.52;100.00;97278.05;3634293;81;43390;-19
2020/12/24 09:22:19;;;;;;;4.07;0.80;;;;;;;6.48;100.00;97271.67;3689918;80;43286;-18
2020/12/24 09:27:25;;;;;;;2.53;0.80;;;;;;;6.53;100.00;97301.95;3648839;79;43472;-19
2020/12/24 09:32:31;;;;;;;2.60;0.77;;;;;;;6.59;100.00;97296.45;3646700;79;43444;-19
2020/12/24 09:37:37;;;;;;;3.40;1.47;;;;;;;6.60;100.00;97284.73;3691847;79;44082;-19
2020/12/24 09:42:44;;;;;;;3.23;0.90;;;;;;;6.56;100.00;97298.10;3651004;81;43395;-18
2020/12/24 09:47:50;;;;;;;3.03;0.70;;;;;;;6.60;100.00;97302.14;3655546;79;44346;-19
2020/12/24 09:52:56;;;;;;;1.17;0.73;;;;;;;6.65;100.00;97297.11;3684765;80;44089;-19
2020/12/24 09:58:02;;;;;;;2.63;0.80;;;;;;;6.67;100.00;97279.05;3675084;79;43151;-19
2020/12/24 10:03:08;;;;;;;1.90;0.70;;;;;;;6.70;100.00;97279.25;3684740;80;43431;-19
2020/12/24 10:08:14;;;;;;;1.57;0.67;;;;;;;6.63;100.00;97283.08;3688766;78;44112;-19
2020/12/24 10:13:19;;;;;;;1.90;0.90;;;;;;;6.63;100.00;97271.86;3645741;81;44061;-17
2020/12/24 10:18:25;;;;;;;2.03;0.70;;;;;;;6.63;100.00;97267.02;3684330;79;43034;-18
2020/12/24 10:23:31;;;;;;;1.23;0.50;;;;;;;6.72;100.00;97260.67;3684512;79;44377;-17
2020/12/24 10:28:36;;;;;;;3.67;0.60;;;;;;;6.90;100.00;97261.02;3654134;79;44048;-18
2020/12/24 10:33:43;;;;;;;3.03;0.60;;;;;;;7.04;100.00;97250.16;3635717;79;42997;-19
2020/12/24 10:38:48;;;;;;;0.90;0.50;;;;;;;7.27;100.00;97265.02;3687679;78;43375;-19
2020/12/24 10:43:54;;;;;;;1.50;0.60;;;;;;;7.43;100.00;97257.98;3684549;80;44056;-18
2020/12/24 10:49:01;;;;;;;2.70;0.60;;;;;;;7.45;100.00;97262.16;3678979;78;44527;-19
2020/12/24 10:54:07;;;;;;;1.63;0.83;;;;;;;7.51;100.00;97254.79;3800963;76;44046;-18
2020/12/24 10:59:15;;;;;;;0.67;0.40;;;;;;;7.61;100.00;97255.10;3777785;77;44413;-18
2020/12/24 11:04:21;;;;;;;0.70;0.40;;;;;;;7.52;100.00;97252.93;3790377;77;44090;-16
2020/12/24 11:09:26;;;;;;;0.50;0.40;;;;;;;7.40;100.00;97242.57;3754597;78;44643;-18
2020/12/24 11:14:33;;;;;;;0.80;0.40;;;;;;;7.58;100.00;97253.61;3685125;80;43682;-19
2020/12/24 11:19:41;;;;;;;0.77;0.40;;;;;;;7.45;100.00;97239.90;3692658;78;43712;-18
2020/12/24 11:24:47;;;;;;;0.40;0.40;;;;;;;7.36;100.00;97234.53;3686756;78;43909;-16
2020/12/24 11:29:53;;;;;;;0.30;0.30;;;;;;;7.21;100.00;97242.43;3678991;78;43478;-18
2020/12/24 11:34:59;;;;;;;0.50;0.40;;;;;;;7.28;100.00;97235.07;3662434;79;43682;-17
2020/12/24 11:40:06;;;;;;;0.30;0.30;;;;;;;7.23;100.00;97251.14;3724602;78;45108;-19
2020/12/24 11:45:12;;;;;;;0.40;0.30;;;;;;;7.27;100.00;97228.86;3810270;77;42938;-20
2020/12/24 11:50:18;;;;;;;0.30;0.30;;;;;;;7.26;100.00;97228.52;3736052;77;43678;-17
2020/12/24 11:55:24;;;;;;;0.30;0.30;;;;;;;7.47;100.00;97225.80;3721202;78;43437;-17
2020/12/24 12:00:30;;;;;;;1.07;0.40;;;;;;;7.58;100.00;97220.10;3620849;80;43267;-18
2020/12/24 12:05:35;;;;;;;1.20;0.50;;;;;;;7.64;100.00;97220.73;3690412;78;43387;-18
2020/12/24 12:10:41;;;;;;;0.40;0.40;;;;;;;7.56;100.00;97210.87;3703763;78;43471;-19
2020/12/24 12:15:47;;;;;;;0.40;0.30;;;;;;;7.62;100.00;97210.69;3687424;79;43726;-26
2020/12/24 12:20:53;;;;;;;0.30;0.30;;;;;;;7.62;100.00;97205.33;3697372;79;44198;-19
2020/12/24 12:26:00;;;;;;;0.43;0.30;;;;;;;7.62;100.00;97213.38;3723930;77;44070;-21
2020/12/24 12:31:06;;;;;;;0.67;0.40;;;;;;;7.75;100.00;97205.28;3667828;79;43346;-20
2020/12/24 12:36:12;;;;;;;0.40;0.30;;;;;;;7.76;100.00;97206.97;3724110;78;44111;-20
2020/12/24 12:41:21;;;;;;;0.70;0.40;;;;;;;7.77;100.00;97204.62;3724380;77;44841;-21
2020/12/24 12:46:28;;;;;;;1.67;0.40;;;;;;;7.69;100.00;97198.29;3719608;78;43401;-20
2020/12/24 12:51:35;;;;;;;2.67;0.40;;;;;;;7.57;100.00;97223.78;3760735;77;44148;-21
2020/12/24 12:56:43;;;;;;;0.60;0.40;;;;;;;6.01;100.00;97277.53;3758889;77;43405;-21
2020/12/24 13:01:52;;;;;;;0.30;0.30;;;;;;;5.37;100.00;97288.49;3758610;77;44027;-21
2020/12/24 13:06:59;;;;;;;1.33;0.30;;;;;;;4.90;100.00;97293.14;3769792;77;43740;-21
2020/12/24 13:12:09;;;;;;;0.50;0.30;;;;;;;4.70;100.00;97303.16;3779662;77;44043;-21
2020/12/24 13:17:22;;;;;;;1.90;1.70;;;;;;;4.53;100.00;97303.95;3726340;78;26856;-21
2020/12/24 13:22:30;;;;;;;1.50;1.37;;;;;;;4.39;100.00;97327.98;3771424;77;43175;-21
2020/12/24 13:27:38;;;;;;;2.70;2.50;;;;;;;4.38;100.00;97330.30;3782269;77;43683;-21
2020/12/24 13:32:45;;;;;;;0.80;0.80;;;;;;;4.37;100.00;97351.29;3692600;78;44111;-22
2020/12/24 13:37:51;;;;;;;0.90;0.90;;;;;;;4.25;100.00;97352.82;3674484;79;43997;-21
2020/12/24 13:42:56;;;;;;;0.50;0.50;;;;;;;4.21;100.00;97362.09;3677598;80;43441;-22
2020/12/24 13:48:04;;;;;;;1.47;1.37;;;;;;;4.12;100.00;97369.64;3789097;77;43680;-22
2020/12/24 13:53:09;;;;;;;4.43;3.50;;;;;;;4.11;100.00;97383.95;3788153;77;44055;-22
2020/12/24 13:58:15;;;;;;;1.40;1.30;;;;;;;4.03;100.00;97386.52;3787131;77;44468;-22
2020/12/24 14:03:21;;;;;;;1.50;1.40;;;;;;;4.03;100.00;97413.16;3780566;77;44081;-22
2020/12/24 14:08:33;;;;;;;0.90;0.60;;;;;;;3.88;100.00;97424.27;3769266;77;44253;-22
2020/12/24 14:13:38;;;;;;;1.70;1.53;;;;;;;3.84;100.00;97449.04;3787009;77;44442;-22
2020/12/24 14:18:45;;;;;;;1.43;1.33;;;;;;;3.79;100.00;97451.78;3767136;77;44035;-22
2020/12/24 14:23:50;;;;;;;1.90;1.70;;;;;;;3.66;100.00;97450.25;3726225;78;44032;-22
2020/12/24 14:28:58;;;;;;;0.40;0.40;;;;;;;3.65;100.00;97465.88;3684425;79;42600;-22
2020/12/24 14:34:05;;;;;;;1.93;1.83;;;;;;;3.64;100.00;97474.84;3677488;79;43315;-22
2020/12/24 14:39:12;;;;;;;1.73;1.23;;;;;;;3.53;100.00;97472.33;3784938;77;44026;-22
2020/12/24 14:44:17;;;;;;;2.83;2.63;;;;;;;3.52;100.00;97483.48;3801285;77;44105;-21
2020/12/24 14:49:23;;;;;;;0.90;0.90;;;;;;;3.49;100.00;97495.73;3793730;77;43823;-21
2020/12/24 14:54:29;;;;;;;1.93;0.60;;;;;;;3.49;100.00;97518.84;3770759;77;43491;-21
2020/12/24 14:59:35;;;;;;;1.40;0.60;;;;;;;3.44;100.00;97535.75;3784631;77;43709;-21
2020/12/24 15:04:41;;;;;;;3.00;2.70;;;;;;;3.50;100.00;97530.71;3784094;77;44117;-21
2020/12/24 15:09:47;;;;;;;1.87;1.73;;;;;;;3.50;100.00;97544.50;3781789;77;44550;-21
2020/12/24 15:14:52;;;;;;;1.60;1.50;;;;;;;3.50;100.00;97545.83;3793407;77;44080;-21
2020/12/24 15:19:58;;;;;;;1.33;1.23;;;;;;;3.48;100.00;97559.30;3791899;77;43108;-21
2020/12/24 15:25:05;;;;;;;3.73;3.20;;;;;;;3.47;100.00;97570.92;3769354;77;44051;-21
2020/12/24 15:30:11;;;;;;;1.47;0.80;;;;;;;3.46;100.00;97583.88;3756740;78;44465;-21
2020/12/24 15:35:18;;;;;;;0.97;0.90;;;;;;;3.47;100.00;97582.08;3770132;77;43471;-21
2020/12/24 15:40:24;;;;;;;1.17;1.07;;;;;;;3.50;100.00;97587.97;3766041;77;43694;-20
2020/12/24 15:45:30;;;;;;;2.03;1.80;;;;;;;3.48;100.00;97595.72;3784839;77;43442;-20
2020/12/24 15:50:37;;;;;;;1.80;1.70;;;;;;;3.44;100.00;97598.31;3782103;77;43702;-20
2020/12/24 15:55:43;;;;;;;2.33;2.00;;;;;;;3.42;100.00;97611.75;3788863;77;43352;-20
2020/12/24 16:00:51;;;;;;;1.40;1.30;;;;;;;3.44;100.00;97617.78;3792597;77;43418;-20
2020/12/24 16:05:57;;;;;;;1.40;1.30;;;;;;;3.40;100.00;97623.05;3775300;77;43132;-20
2020/12/24 16:11:03;;;;;;;1.80;1.50;;;;;;;3.42;100.00;97623.73;3659313;79;43403;-20
2020/12/24 16:16:09;;;;;;;3.80;3.40;;;;;;;3.36;100.00;97632.27;3687204;79;44051;-20
2020/12/24 16:21:15;;;;;;;2.50;2.00;;;;;;;3.37;100.00;97647.28;3784825;77;43436;-20
2020/12/24 16:26:23;;;;;;;2.30;1.90;;;;;;;3.35;100.00;97644.73;3791545;77;44072;-20
2020/12/24 16:31:30;;;;;;;2.50;2.30;;;;;;;3.32;100.00;97653.00;3771843;77;44037;-20
2020/12/24 16:36:36;;;;;;;2.20;2.00;;;;;;;3.30;100.00;97655.42;3800048;77;43339;-20
2020/12/24 16:41:43;;;;;;;2.73;2.30;;;;;;;3.28;100.00;97667.55;3790221;77;44105;-17
2020/12/24 16:46:49;;;;;;;2.47;2.00;;;;;;;3.29;100.00;97670.57;3788560;77;44022;-17
2020/12/24 16:51:55;;;;;;;2.80;1.60;;;;;;;3.24;100.00;97675.44;3737225;77;42835;-20
2020/12/24 16:57:03;;;;;;;1.90;1.60;;;;;;;3.23;100.00;97681.27;3621685;81;43528;-20
2020/12/24 17:02:08;;;;;;;2.20;1.70;;;;;;;3.19;100.00;97685.66;3650085;79;43338;-20
2020/12/24 17:07:14;;;;;;;3.67;2.40;;;;;;;3.17;100.00;97692.93;3637503;80;43240;-20
2020/12/24 17:12:22;;;;;;;2.03;1.57;;;;;;;3.13;100.00;97692.36;3645898;80;43096;-20
2020/12/24 17:17:30;;;;;;;2.90;2.33;;;;;;;3.07;100.00;97692.40;3652906;79;44573;-20
2020/12/24 17:22:35;;;;;;;6.97;6.33;;;;;;;3.12;100.00;97701.81;3701357;78;44003;-20
2020/12/24 17:27:41;;;;;;;2.50;1.97;;;;;;;3.07;100.00;97709.70;3711525;78;44034;-20
2020/12/24 17:32:47;;;;;;;4.10;2.97;;;;;;;3.07;100.00;97711.03;3739690;78;44408;-20
2020/12/24 17:37:52;;;;;;;2.73;1.53;;;;;;;3.02;100.00;97708.41;3740834;78;44036;-20
2020/12/24 17:42:58;;;;;;;2.23;1.70;;;;;;;2.96;100.00;97707.58;3701933;78;43521;-21
2020/12/24 17:48:04;;;;;;;1.40;1.30;;;;;;;2.89;100.00;97708.59;3698896;78;43727;-20
2020/12/24 17:53:10;;;;;;;1.50;1.30;;;;;;;2.91;100.00;97698.66;3647316;79;44065;-20
2020/12/24 17:58:16;;;;;;;2.03;1.60;;;;;;;2.85;100.00;97711.17;3654367;79;43038;-21
2020/12/24 18:03:22;;;;;;;2.40;2.20;;;;;;;2.86;100.00;97723.00;3646040;80;43674;-20
2020/12/24 18:08:28;;;;;;;3.23;2.43;;;;;;;2.84;100.00;97716.96;3654095;80;44023;-20
2020/12/24 18:13:34;;;;;;;2.27;1.50;;;;;;;2.78;100.00;97715.66;3647099;80;44761;-21
2020/12/24 18:18:40;;;;;;;2.70;1.40;;;;;;;2.68;100.00;97736.03;3645448;80;44704;-19
2020/12/24 18:23:47;;;;;;;1.60;1.30;;;;;;;2.58;100.00;97739.11;3741471;78;44694;-20
2020/12/24 18:28:55;;;;;;;2.10;1.57;;;;;;;2.50;100.00;97733.59;3726417;78;44056;-19
2020/12/24 18:34:01;;;;;;;1.90;1.53;;;;;;;2.44;100.00;97734.44;3623124;81;44114;-20
2020/12/24 18:39:08;;;;;;;2.10;1.60;;;;;;;2.39;100.00;97734.47;3599948;81;44029;-20
2020/12/24 18:44:14;;;;;;;5.50;4.47;;;;;;;2.37;100.00;97731.95;3704149;78;44433;-19
2020/12/24 18:49:20;;;;;;;2.00;1.60;;;;;;;2.34;100.00;97736.17;3735466;78;43970;-19
2020/12/24 18:54:27;;;;;;;2.60;1.83;;;;;;;2.37;100.00;97745.23;3701818;78;43323;-18
2020/12/24 18:59:33;;;;;;;2.77;2.20;;;;;;;2.39;100.00;97751.28;3686159;78;44033;-18
2020/12/24 19:04:39;;;;;;;2.70;2.40;;;;;;;2.37;100.00;97751.02;3698907;78;43677;-19
2020/12/24 19:09:45;;;;;;;3.90;3.10;;;;;;;2.42;100.00;97753.66;3683695;79;44027;-19
2020/12/24 19:14:51;;;;;;;3.07;2.00;;;;;;;2.50;100.00;97752.20;3686936;78;44010;-19
2020/12/24 19:19:57;;;;;;;2.77;1.97;;;;;;;2.57;100.00;97752.04;3689216;78;42980;-19
2020/12/24 19:25:05;;;;;;;2.80;2.23;;;;;;;2.55;100.00;97763.28;3694308;78;44088;-19
2020/12/24 19:30:11;;;;;;;3.30;2.63;;;;;;;2.61;100.00;97763.62;3726207;78;43287;-19
2020/12/24 19:35:17;;;;;;;3.00;2.33;;;;;;;2.64;100.00;97770.99;3741139;78;43313;-19
2020/12/24 19:40:23;;;;;;;4.07;2.70;;;;;;;2.69;100.00;97773.63;3705955;78;43416;-20
2020/12/24 19:45:29;;;;;;;3.37;2.50;;;;;;;2.71;100.00;97788.12;3621078;80;44016;-22
2020/12/24 19:50:35;;;;;;;3.40;2.60;;;;;;;2.74;100.00;97790.53;3622690;80;43678;-22
2020/12/24 19:55:41;;;;;;;3.37;2.70;;;;;;;2.84;100.00;97798.60;3811065;77;43337;-23
2020/12/24 20:00:47;;;;;;;4.20;3.00;;;;;;;2.84;100.00;97803.92;3767088;76;44180;-22
2020/12/24 20:05:53;;;;;;;3.30;2.43;;;;;;;2.95;100.00;97795.89;3753810;79;43094;-21
2020/12/24 20:10:59;;;;;;;3.90;3.20;;;;;;;2.89;100.00;97797.72;3752015;78;44038;-22
2020/12/24 20:16:08;;;;;;;4.90;3.33;;;;;;;2.93;100.00;97800.48;3813632;77;44542;-22
2020/12/24 20:21:16;;;;;;;5.47;3.23;;;;;;;2.93;100.00;97809.80;3814484;77;43396;-22
2020/12/24 20:26:25;;;;;;;4.83;3.20;;;;;;;3.02;100.00;97814.84;3811827;77;42888;-23
2020/12/24 20:31:31;;;;;;;6.00;3.90;;;;;;;3.13;100.00;97820.58;3686894;80;44446;-21
2020/12/24 20:36:38;;;;;;;5.67;3.70;;;;;;;3.18;100.00;97815.73;3806997;77;43691;-21
2020/12/24 20:41:44;;;;;;;6.40;3.87;;;;;;;3.17;100.00;97815.36;3775071;77;43452;-21
2020/12/24 20:46:51;;;;;;;4.20;3.43;;;;;;;3.10;100.00;97818.20;3753535;79;43316;-21
2020/12/24 20:51:57;;;;;;;5.40;3.67;;;;;;;3.10;100.00;97817.70;3755457;77;44058;-21
2020/12/24 20:57:06;;;;;;;4.77;3.53;;;;;;;3.11;100.00;97821.22;3685357;78;44536;-21
2020/12/24 21:02:13;;;;;;;4.13;2.93;;;;;;;3.12;100.00;97810.44;3663720;79;43974;-22
2020/12/24 21:07:19;;;;;;;5.10;3.83;;;;;;;3.11;100.00;97821.22;3681970;78;44113;-22
2020/12/24 21:12:29;;;;;;;6.40;4.27;;;;;;;3.13;100.00;97827.23;3645955;80;26441;-21
2020/12/24 21:17:35;;;;;;;5.83;4.13;;;;;;;3.14;100.00;97826.27;3685586;80;43743;-23
2020/12/24 21:22:42;;;;;;;5.70;4.27;;;;;;;3.13;100.00;97829.89;3685603;80;42693;-21
2020/12/24 21:27:48;;;;;;;6.60;4.60;;;;;;;3.15;100.00;97826.16;3643685;80;43973;-21
2020/12/24 21:32:55;;;;;;;5.63;3.90;;;;;;;3.16;100.00;97817.66;3678947;79;43478;-20
2020/12/24 21:38:01;;;;;;;6.43;4.70;;;;;;;3.15;100.00;97826.63;3606842;80;43008;-20
2020/12/24 21:43:07;;;;;;;5.83;4.20;;;;;;;2.99;100.00;97829.27;3761872;77;44086;-22
2020/12/24 21:48:13;;;;;;;6.60;4.57;;;;;;;3.05;100.00;97835.38;3753503;78;44086;-23
2020/12/24 21:53:20;;;;;;;7.57;4.70;;;;;;;3.02;100.00;97837.47;3689168;80;43621;-22
2020/12/24 21:58:27;;;;;;;6.37;4.10;;;;;;;2.99;100.00;97841.23;3650481;79;44690;-22
2020/12/24 22:03:34;;;;;;;6.23;4.27;;;;;;;3.02;100.00;97850.77;3650805;79;44645;-22
2020/12/24 22:08:43;;;;;;;6.23;4.13;;;;;;;3.05;100.00;97852.69;3690493;80;43987;-22
2020/12/24 22:13:51;;;;;;;7.37;4.10;;;;;;;3.02;100.00;97851.59;3651078;81;44008;-22
2020/12/24 22:18:57;;;;;;;6.07;3.97;;;;;;;3.01;100.00;97858.39;3642972;80;43119;-22
2020/12/24 22:24:04;;;;;;;6.07;4.00;;;;;;;3.01;100.00;97867.20;3650979;81;44057;-22
2020/12/24 22:29:10;;;;;;;6.53;4.40;;;;;;;3.07;100.00;97869.38;3643125;79;44059;-22
2020/12/24 22:34:17;;;;;;;6.80;4.10;;;;;;;3.03;100.00;97868.42;3690629;78;43662;-21
2020/12/24 22:39:23;;;;;;;7.80;4.00;;;;;;;3.00;100.00;97874.83;3631841;79;44053;-21
2020/12/24 22:44:30;;;;;;;10.43;5.10;;;;;;;2.99;100.00;97869.17;3628887;81;43729;-21
2020/12/24 22:49:36;;;;;;;7.93;4.50;;;;;;;2.93;100.00;97871.86;3681394;80;43381;-21
2020/12/24 22:54:42;;;;;;;8.33;4.43;;;;;;;2.90;100.00;97877.42;3664162;80;43718;-21
2020/12/24 22:59:48;;;;;;;8.73;4.50;;;;;;;2.93;100.00;97880.31;3635334;80;44396;-21
2020/12/24 23:04:54;;;;;;;8.60;4.53;;;;;;;2.92;100.00;97882.61;3684118;80;44122;-21
2020/12/24 23:10:00;;;;;;;8.60;5.13;;;;;;;2.87;100.00;97885.65;3687537;78;43675;-21
2020/12/24 23:15:06;;;;;;;9.10;4.90;;;;;;;2.83;100.00;97890.02;3645897;81;43642;-21
2020/12/24 23:20:11;;;;;;;7.73;4.83;;;;;;;2.83;100.00;97894.84;3685534;79;43471;-21
2020/12/24 23:25:18;;;;;;;8.50;5.03;;;;;;;2.76;100.00;97897.66;3684306;80;43709;-21
2020/12/24 23:30:24;;;;;;;8.07;4.43;;;;;;;2.69;100.00;97896.47;3646595;80;43740;-21
2020/12/24 23:35:30;;;;;;;8.87;4.97;;;;;;;2.74;100.00;97899.59;3684425;80;43767;-21
2020/12/24 23:40:36;;;;;;;8.90;5.07;;;;;;;2.73;100.00;97900.55;3693065;78;44098;-21
2020/12/24 23:45:42;;;;;;;10.57;4.97;;;;;;;2.73;100.00;97902.75;3645584;81;44036;-21
2020/12/24 23:50:48;;;;;;;7.93;5.33;;;;;;;2.78;100.00;97903.20;3685746;80;43336;-21
2020/12/24 23:55:54;;;;;;;9.53;5.43;;;;;;;2.69;100.00;97903.95;3665570;80;44063;-21
